createdAt,value
2023-03-23T15:58:17.767Z,2.17
2023-03-23T16:00:51.846Z,2.47
2023-03-23T16:03:29.887Z,2.20
2023-03-23T16:06:03.412Z,2.00
2023-03-23T16:08:40.905Z,2.30
2023-03-23T16:11:15.528Z,2.33
2023-03-23T16:13:48.915Z,2.97
2023-03-23T16:16:29.104Z,1.67
2023-03-23T16:19:02.028Z,2.47
2023-03-23T16:21:35.340Z,1.80
2023-03-23T16:24:10.719Z,1.97
2023-03-23T16:26:43.857Z,2.10
2023-03-23T16:29:40.592Z,2.40
2023-03-23T16:32:19.253Z,1.73
2023-03-23T16:35:07.395Z,2.13
2023-03-23T16:37:40.885Z,2.10
2023-03-23T16:40:16.464Z,2.70
2023-03-23T16:42:51.794Z,2.30
2023-03-23T16:45:27.658Z,2.30
2023-03-23T16:48:08.059Z,2.00
2023-03-23T16:50:41.218Z,1.90
2023-03-23T16:53:17.000Z,1.93
2023-03-23T16:55:58.011Z,1.67
2023-03-23T16:58:31.677Z,2.07
2023-03-23T17:01:07.540Z,2.23
2023-03-23T17:03:43.920Z,2.10
2023-03-23T17:06:17.524Z,2.40
2023-03-23T17:08:50.473Z,2.20
2023-03-23T17:11:25.837Z,2.30
2023-03-23T17:14:01.775Z,1.83
2023-03-23T17:16:40.648Z,2.80
2023-03-23T17:19:27.389Z,2.77
2023-03-23T17:22:01.624Z,2.47
2023-03-23T17:24:35.802Z,2.50
2023-03-23T17:27:13.344Z,2.90
2023-03-23T17:29:46.612Z,3.03
2023-03-23T17:32:21.792Z,2.30
2023-03-23T17:34:54.632Z,3.20
2023-03-23T17:37:28.588Z,2.70
2023-03-23T17:40:01.942Z,3.13
2023-03-23T17:42:40.753Z,2.63
2023-03-23T17:45:25.377Z,2.83
2023-03-23T17:48:01.309Z,2.37
2023-03-23T17:50:36.888Z,3.27
2023-03-23T17:53:09.612Z,1.73
2023-03-23T17:55:43.655Z,1.90
2023-03-23T17:58:18.822Z,2.43
2023-03-23T18:00:51.674Z,2.20
2023-03-23T18:03:25.455Z,2.33
2023-03-23T18:06:03.147Z,2.20
2023-03-23T18:08:39.362Z,1.87
2023-03-23T18:11:12.319Z,2.37
2023-03-23T18:13:48.732Z,2.27
2023-03-23T18:16:21.668Z,2.47
2023-03-23T18:18:54.725Z,6.17
2023-03-23T18:21:28.125Z,3.87
2023-03-23T18:26:52.101Z,3.30
2023-03-23T18:29:26.605Z,2.77
2023-03-23T18:32:02.460Z,2.60
2023-03-23T18:34:36.647Z,3.17
2023-03-23T18:37:09.456Z,3.10
2023-03-23T18:39:42.280Z,2.57
2023-03-23T18:42:15.456Z,3.20
2023-03-23T18:44:49.722Z,2.90
2023-03-23T18:47:22.547Z,3.27
2023-03-23T18:49:58.568Z,2.73
2023-03-23T18:52:31.367Z,2.63
2023-03-23T18:55:04.764Z,3.30
2023-03-23T18:57:41.424Z,3.20
2023-03-23T19:00:17.072Z,2.70
2023-03-23T19:02:52.321Z,2.60
2023-03-23T19:05:25.696Z,3.40
2023-03-23T19:08:01.765Z,3.40
2023-03-23T19:10:37.257Z,3.60
2023-03-23T19:13:11.339Z,2.90
2023-03-23T19:15:45.763Z,3.77
2023-03-23T19:18:20.682Z,3.07
2023-03-23T19:21:13.382Z,2.90
2023-03-23T19:23:49.531Z,3.37
2023-03-23T19:26:23.726Z,2.77
2023-03-23T19:31:36.563Z,2.73
2023-03-23T19:34:09.741Z,2.97
2023-03-23T19:36:48.168Z,2.93
2023-03-23T19:39:26.742Z,3.40
2023-03-23T19:41:59.887Z,3.90
2023-03-23T19:44:33.005Z,3.23
2023-03-23T19:47:07.648Z,3.50
2023-03-23T19:49:40.782Z,3.70
2023-03-23T19:52:18.194Z,3.27
2023-03-23T19:54:51.734Z,3.63
2023-03-23T19:57:24.964Z,3.47
2023-03-23T19:59:59.144Z,3.13
2023-03-23T20:02:33.979Z,3.00
2023-03-23T20:05:08.599Z,3.67
2023-03-23T20:07:44.543Z,3.47
2023-03-23T20:10:21.195Z,3.10
2023-03-23T20:12:54.132Z,3.43
2023-03-23T20:15:26.971Z,3.60
2023-03-23T20:18:01.339Z,3.30
2023-03-23T20:20:36.541Z,3.27
2023-03-23T20:23:09.578Z,3.73
2023-03-23T20:25:43.756Z,3.57
2023-03-23T20:28:16.864Z,3.53
2023-03-23T20:31:19.282Z,3.50
2023-03-23T20:33:46.160Z,4.90
2023-03-23T20:36:20.026Z,4.47
2023-03-23T20:38:52.829Z,8.43
2023-03-23T20:41:26.242Z,8.67
2023-03-23T20:44:02.237Z,6.43
2023-03-23T20:46:38.861Z,6.30
2023-03-23T20:49:13.283Z,5.87
2023-03-23T20:51:48.949Z,6.03
2023-03-23T20:54:22.130Z,5.40
2023-03-23T20:56:56.254Z,4.97
2023-03-23T20:59:30.768Z,4.90
2023-03-23T21:02:04.697Z,5.23
2023-03-23T21:04:40.080Z,5.50
2023-03-23T21:07:16.043Z,5.17
2023-03-23T21:09:48.857Z,4.37
2023-03-23T21:12:22.392Z,5.87
2023-03-23T21:14:55.238Z,5.60
2023-03-23T21:17:28.034Z,5.73
2023-03-23T21:20:05.476Z,5.67
2023-03-23T21:22:38.232Z,5.57
2023-03-23T21:25:13.101Z,6.40
2023-03-23T21:27:46.996Z,5.80
2023-03-23T21:30:23.126Z,5.90
2023-03-23T21:32:56.031Z,5.87
2023-03-23T21:35:30.462Z,5.53
2023-03-23T21:38:04.945Z,5.13
2023-03-23T21:40:38.231Z,5.90
2023-03-23T21:43:14.789Z,5.50
2023-03-23T21:45:49.995Z,5.80
2023-03-23T21:48:23.234Z,5.77
2023-03-23T21:50:57.561Z,5.73
2023-03-23T21:53:33.817Z,5.90
2023-03-23T21:56:10.569Z,7.10
2023-03-23T21:58:43.737Z,6.73
2023-03-23T22:01:17.460Z,6.93
2023-03-23T22:04:00.998Z,6.97
2023-03-23T22:06:35.874Z,6.77
2023-03-23T22:09:09.713Z,6.70
2023-03-23T22:11:42.773Z,6.73
2023-03-23T22:14:18.610Z,6.47
2023-03-23T22:16:51.797Z,6.33
2023-03-23T22:19:33.177Z,7.03
2023-03-23T22:22:08.180Z,6.80
2023-03-23T22:24:41.628Z,6.53
2023-03-23T22:27:14.491Z,6.90
2023-03-23T22:29:47.479Z,6.33
2023-03-23T22:32:20.423Z,6.53
2023-03-23T22:34:53.574Z,5.93
2023-03-23T22:37:28.162Z,6.40
2023-03-23T22:40:01.169Z,5.63
2023-03-23T22:42:34.111Z,6.13
2023-03-23T22:45:09.035Z,6.07
2023-03-23T22:47:43.024Z,5.23
2023-03-23T22:50:16.251Z,6.87
2023-03-23T22:52:50.876Z,6.23
2023-03-23T22:55:23.760Z,6.27
2023-03-23T22:57:56.890Z,6.27
2023-03-23T23:00:29.929Z,6.70
2023-03-23T23:03:02.849Z,6.50
2023-03-23T23:05:39.288Z,6.13
2023-03-23T23:08:16.629Z,5.80
2023-03-23T23:10:51.459Z,6.33
2023-03-23T23:13:25.106Z,5.93
2023-03-23T23:15:58.830Z,5.30
2023-03-23T23:18:33.267Z,5.43
2023-03-23T23:21:07.326Z,5.40
2023-03-23T23:23:46.419Z,5.00
2023-03-23T23:26:19.761Z,5.57
2023-03-23T23:28:58.051Z,4.97
2023-03-23T23:31:33.700Z,5.80
2023-03-23T23:34:06.567Z,5.30
2023-03-23T23:36:40.354Z,5.20
2023-03-23T23:39:14.781Z,5.53
2023-03-23T23:41:48.124Z,4.83
2023-03-23T23:44:20.980Z,5.10
2023-03-23T23:46:53.809Z,4.80
2023-03-23T23:49:28.874Z,4.73
2023-03-23T23:52:02.007Z,4.20
2023-03-23T23:54:39.498Z,4.43
2023-03-23T23:57:12.436Z,4.47
2023-03-23T23:59:45.782Z,6.23
